Terminal Aerodrome Forecast
Issued by NWS

Home | Current Version | Previous Version | Text Only | Print | Product List | Glossary On
Versions: 1 2 3 4 5 6 7 8 9 10 11 12 13 14
000
FTUS43 KDLH 161137
TAFBRD
TAF
KBRD 161137Z 1612/1712 35008KT 5SM -SN BR SCT015 BKN035
      TEMPO 1612/1615 2SM -SN BR OVC015
     FM161500 35012G18KT P6SM VCSH BKN025
     FM162000 35012G18KT P6SM BKN040
     FM170000 35009KT P6SM BKN120=

USA.gov is the U.S. government's official web portal to all federal, state and local government web resources and services.